createdAt,value
2023-03-26T00:00:56.610Z,8.23
2023-03-26T00:03:24.156Z,8.18
2023-03-26T00:06:03.278Z,8.15
2023-03-26T00:08:30.935Z,8.20
2023-03-26T00:11:00.024Z,8.11
2023-03-26T00:13:28.538Z,8.19
2023-03-26T00:15:57.344Z,8.19
2023-03-26T00:18:30.147Z,8.12
2023-03-26T00:20:57.852Z,8.07
2023-03-26T00:23:25.683Z,8.14
2023-03-26T00:25:53.579Z,8.00
2023-03-26T00:28:21.563Z,8.11
2023-03-26T00:30:49.534Z,8.15
2023-03-26T00:33:18.699Z,8.18
2023-03-26T00:35:47.097Z,8.08
2023-03-26T00:38:15.209Z,8.11
2023-03-26T00:40:44.061Z,7.89
2023-03-26T00:43:19.073Z,7.97
2023-03-26T00:45:47.920Z,7.86
2023-03-26T00:48:15.558Z,7.76
2023-03-26T00:50:46.477Z,7.80
2023-03-26T00:53:14.823Z,7.83
2023-03-26T00:55:42.902Z,7.83
2023-03-26T00:58:10.705Z,7.89
2023-03-26T01:00:40.635Z,7.74
2023-03-26T01:03:08.264Z,7.64
2023-03-26T01:05:46.554Z,7.67
2023-03-26T01:08:19.223Z,7.70
2023-03-26T01:10:50.684Z,7.66
2023-03-26T01:13:19.420Z,7.74
2023-03-26T01:15:50.886Z,7.82
2023-03-26T01:18:20.240Z,7.80
2023-03-26T01:20:50.961Z,7.76
2023-03-26T01:23:21.892Z,7.94
2023-03-26T01:25:56.080Z,7.85
2023-03-26T01:28:23.944Z,7.81
2023-03-26T01:30:58.484Z,7.80
2023-03-26T01:33:30.077Z,7.75
2023-03-26T01:36:00.257Z,7.61
2023-03-26T01:38:30.591Z,7.78
2023-03-26T01:41:01.982Z,7.85
2023-03-26T01:43:33.127Z,7.78
2023-03-26T01:46:03.514Z,7.82
2023-03-26T01:48:33.180Z,7.75
2023-03-26T01:51:00.634Z,7.73
2023-03-26T01:53:28.484Z,7.77
2023-03-26T01:56:03.813Z,7.47
2023-03-26T01:58:36.113Z,7.50
2023-03-26T02:01:12.617Z,7.44
2023-03-26T02:03:45.410Z,7.65
2023-03-26T02:06:18.072Z,7.48
2023-03-26T02:08:50.172Z,7.46
2023-03-26T02:11:19.967Z,7.42
2023-03-26T02:13:47.914Z,7.66
2023-03-26T02:16:17.500Z,7.66
2023-03-26T02:18:45.884Z,7.88
2023-03-26T02:21:15.369Z,7.67
2023-03-26T02:23:46.917Z,7.56
2023-03-26T02:26:16.942Z,7.64
2023-03-26T02:28:45.954Z,7.60
2023-03-26T02:31:13.725Z,7.63
2023-03-26T02:33:41.236Z,7.58
2023-03-26T02:36:10.688Z,7.66
2023-03-26T02:38:38.328Z,7.82
2023-03-26T02:41:06.519Z,7.86
2023-03-26T02:43:34.116Z,7.98
2023-03-26T02:46:03.000Z,7.70
2023-03-26T02:48:31.294Z,7.53
2023-03-26T02:50:58.991Z,7.49
2023-03-26T02:53:29.698Z,7.41
2023-03-26T02:55:57.588Z,7.40
2023-03-26T02:58:26.235Z,7.41
2023-03-26T03:00:56.037Z,7.50
2023-03-26T03:03:26.089Z,7.40
2023-03-26T03:05:54.705Z,7.30
2023-03-26T03:08:23.665Z,7.34
2023-03-26T03:10:58.763Z,7.58
2023-03-26T03:13:26.373Z,7.58
2023-03-26T03:15:54.234Z,7.66
2023-03-26T03:18:22.197Z,7.66
2023-03-26T03:20:51.436Z,7.70
2023-03-26T03:23:18.904Z,7.65
2023-03-26T03:25:46.494Z,7.72
2023-03-26T03:28:14.040Z,7.67
2023-03-26T03:30:42.794Z,7.66
2023-03-26T03:33:10.397Z,7.44
2023-03-26T03:35:38.280Z,7.44
2023-03-26T03:38:07.266Z,7.45
2023-03-26T03:40:34.813Z,7.76
2023-03-26T03:43:02.297Z,7.76
2023-03-26T03:45:29.801Z,7.80
2023-03-26T03:47:57.496Z,7.94
2023-03-26T03:50:25.212Z,8.06
2023-03-26T03:52:52.980Z,8.15
2023-03-26T03:55:24.007Z,8.28
2023-03-26T03:57:52.379Z,8.20
2023-03-26T04:00:20.379Z,8.28
2023-03-26T04:02:48.162Z,8.03
2023-03-26T04:05:15.685Z,8.00
2023-03-26T04:07:43.834Z,7.93
2023-03-26T04:10:16.344Z,8.01
2023-03-26T04:12:45.583Z,7.94
2023-03-26T04:15:13.091Z,7.95
2023-03-26T04:17:42.642Z,8.01
2023-03-26T04:20:15.526Z,7.76
2023-03-26T04:22:43.743Z,7.78
2023-03-26T04:25:11.933Z,7.78
2023-03-26T04:27:41.642Z,7.86
2023-03-26T04:30:15.344Z,7.74
2023-03-26T04:32:42.978Z,7.73
2023-03-26T04:35:12.922Z,7.83
2023-03-26T04:37:41.910Z,8.00
2023-03-26T04:40:14.229Z,7.99
2023-03-26T04:42:46.214Z,7.85
2023-03-26T04:45:16.465Z,7.83
2023-03-26T04:47:46.539Z,7.86
2023-03-26T04:50:14.437Z,7.71
2023-03-26T04:52:45.157Z,7.51
2023-03-26T04:55:20.994Z,7.45
2023-03-26T04:57:51.499Z,7.45
2023-03-26T05:00:21.358Z,7.39
2023-03-26T05:02:50.369Z,7.44
2023-03-26T05:05:18.368Z,7.79
2023-03-26T05:07:45.855Z,7.79
2023-03-26T05:10:14.767Z,7.76
2023-03-26T05:12:42.535Z,7.89
2023-03-26T05:15:11.701Z,8.13
2023-03-26T05:17:41.554Z,8.31
2023-03-26T05:20:16.884Z,8.13
2023-03-26T05:22:44.371Z,7.77
2023-03-26T05:25:11.928Z,7.46
2023-03-26T05:27:39.716Z,7.35
2023-03-26T05:30:09.810Z,7.36
2023-03-26T05:32:38.099Z,7.41
2023-03-26T05:35:08.519Z,7.42
2023-03-26T05:37:37.606Z,7.60
2023-03-26T05:40:11.389Z,7.67
2023-03-26T05:42:39.222Z,7.91
2023-03-26T05:45:08.021Z,7.82
2023-03-26T05:47:35.706Z,7.67
2023-03-26T05:50:03.260Z,7.47
2023-03-26T05:52:32.090Z,7.52
2023-03-26T05:54:59.542Z,7.53
2023-03-26T05:57:30.124Z,7.42
2023-03-26T05:59:57.636Z,7.51
2023-03-26T06:02:25.145Z,7.41
2023-03-26T06:04:52.787Z,7.44
2023-03-26T06:07:20.947Z,7.36
2023-03-26T06:09:49.899Z,7.60
2023-03-26T06:12:17.368Z,7.49
2023-03-26T06:14:45.717Z,7.49
2023-03-26T06:17:13.225Z,7.65
2023-03-26T06:19:40.762Z,7.82
2023-03-26T06:22:08.260Z,7.84
2023-03-26T06:24:35.736Z,7.96
2023-03-26T06:27:04.672Z,7.89
2023-03-26T06:29:32.151Z,7.84
2023-03-26T06:32:09.069Z,7.93
2023-03-26T06:34:40.292Z,8.04
2023-03-26T06:37:07.745Z,8.15
2023-03-26T06:39:35.236Z,8.04
2023-03-26T06:42:04.390Z,8.13
2023-03-26T06:44:31.885Z,8.07
2023-03-26T06:46:59.431Z,8.07
2023-03-26T06:49:26.952Z,8.03
2023-03-26T06:51:54.672Z,8.21
2023-03-26T06:54:22.149Z,8.35
2023-03-26T06:56:49.727Z,8.38
2023-03-26T06:59:18.553Z,8.49
2023-03-26T07:01:46.858Z,8.49
2023-03-26T07:04:14.434Z,8.33
2023-03-26T07:06:41.915Z,8.22
2023-03-26T07:09:09.735Z,8.14
2023-03-26T07:11:37.210Z,8.33
2023-03-26T07:14:04.793Z,8.24
2023-03-26T07:16:33.609Z,8.14
2023-03-26T07:19:01.101Z,8.15
2023-03-26T07:21:29.038Z,8.18
2023-03-26T07:23:57.208Z,8.01
2023-03-26T07:26:27.838Z,8.04
2023-03-26T07:29:04.969Z,7.94
2023-03-26T07:31:42.394Z,7.81
2023-03-26T07:34:18.446Z,8.02
2023-03-26T07:36:51.043Z,7.98
2023-03-26T07:39:31.185Z,8.00
2023-03-26T07:42:02.473Z,8.02
2023-03-26T07:44:39.280Z,8.11
2023-03-26T07:47:25.457Z,8.19
2023-03-26T07:49:54.994Z,8.09
2023-03-26T07:52:23.136Z,8.06
2023-03-26T07:54:51.339Z,8.09
2023-03-26T07:57:24.739Z,8.10
2023-03-26T07:59:53.745Z,8.35
2023-03-26T08:02:39.346Z,8.39
2023-03-26T08:05:19.787Z,8.33
2023-03-26T08:08:02.766Z,8.40
2023-03-26T08:10:38.000Z,8.43
2023-03-26T08:13:16.401Z,8.25
2023-03-26T08:15:48.174Z,8.10
2023-03-26T08:18:27.198Z,8.13
2023-03-26T08:20:58.388Z,8.33
2023-03-26T08:23:30.667Z,8.17
2023-03-26T08:26:02.572Z,8.22
2023-03-26T08:28:44.501Z,8.32
2023-03-26T08:31:13.956Z,8.53
2023-03-26T08:33:43.524Z,8.38
2023-03-26T08:36:11.454Z,8.36
2023-03-26T08:38:38.927Z,8.44
2023-03-26T08:41:51.436Z,8.52
2023-03-26T08:44:49.901Z,8.39
2023-03-26T08:47:40.907Z,8.30
2023-03-26T08:50:51.778Z,8.30
2023-03-26T08:54:07.617Z,8.37
2023-03-26T08:56:41.156Z,8.48
2023-03-26T08:59:43.201Z,8.41
2023-03-26T09:02:41.584Z,8.33
2023-03-26T09:05:47.133Z,8.36
2023-03-26T09:08:33.958Z,8.41
2023-03-26T09:11:17.851Z,8.60
2023-03-26T09:13:59.677Z,8.59
2023-03-26T09:16:57.106Z,8.41
2023-03-26T09:19:47.972Z,8.41
2023-03-26T09:22:47.279Z,8.51
2023-03-26T09:25:54.577Z,8.44
2023-03-26T09:28:52.726Z,8.38
2023-03-26T09:31:41.804Z,8.28
2023-03-26T09:34:26.224Z,8.32
2023-03-26T09:36:58.108Z,8.41
2023-03-26T09:39:37.434Z,8.33
2023-03-26T09:42:12.682Z,8.19
2023-03-26T09:44:51.103Z,8.13
2023-03-26T09:47:51.426Z,8.36
2023-03-26T09:50:47.107Z,8.49
2023-03-26T09:53:29.198Z,8.63
2023-03-26T09:56:10.397Z,8.86
2023-03-26T09:58:57.881Z,8.63
2023-03-26T10:01:32.111Z,8.45
2023-03-26T10:04:12.093Z,8.39
2023-03-26T10:06:49.766Z,8.50
2023-03-26T10:09:24.685Z,8.64
2023-03-26T10:12:05.200Z,8.68
2023-03-26T10:14:36.111Z,8.42
2023-03-26T10:17:10.595Z,8.52
2023-03-26T10:19:54.893Z,8.44
2023-03-26T10:22:31.130Z,8.83
2023-03-26T10:25:14.112Z,9.24
2023-03-26T10:27:49.503Z,9.55
2023-03-26T10:30:41.839Z,9.70
2023-03-26T10:33:15.757Z,9.92
2023-03-26T10:35:52.415Z,9.89
2023-03-26T10:38:26.216Z,10.00
2023-03-26T10:41:00.351Z,10.47
2023-03-26T10:43:52.086Z,10.27
2023-03-26T10:47:14.480Z,10.51
2023-03-26T10:50:06.470Z,10.74
2023-03-26T10:52:38.918Z,10.33
2023-03-26T10:55:12.564Z,10.56
2023-03-26T10:57:43.566Z,10.19
2023-03-26T11:00:23.255Z,10.27
2023-03-26T11:03:03.246Z,10.21
2023-03-26T11:05:46.283Z,10.27
2023-03-26T11:08:16.332Z,10.14
2023-03-26T11:10:51.210Z,10.21
2023-03-26T11:13:24.517Z,10.10
2023-03-26T11:15:57.498Z,9.89
2023-03-26T11:18:29.916Z,9.88
2023-03-26T11:21:18.633Z,9.72
2023-03-26T11:24:04.778Z,9.79
2023-03-26T11:26:39.524Z,9.69
2023-03-26T11:29:42.919Z,9.66
2023-03-26T11:32:13.660Z,9.82
2023-03-26T11:34:43.577Z,9.89
2023-03-26T11:37:17.993Z,10.04
2023-03-26T11:39:50.366Z,10.09
2023-03-26T11:42:19.213Z,10.34
2023-03-26T11:44:49.459Z,10.52
2023-03-26T11:47:23.155Z,10.26
2023-03-26T11:49:52.333Z,10.33
2023-03-26T11:52:19.886Z,10.24
2023-03-26T11:54:48.385Z,10.23
2023-03-26T11:57:20.686Z,10.30
2023-03-26T11:59:57.622Z,10.46
2023-03-26T12:02:32.406Z,10.35
2023-03-26T12:05:15.962Z,10.40
2023-03-26T12:07:47.788Z,10.53
2023-03-26T12:10:25.530Z,10.00
2023-03-26T12:12:55.400Z,9.94
2023-03-26T12:15:23.220Z,10.31
2023-03-26T12:17:55.955Z,10.23
2023-03-26T12:20:38.518Z,10.49
2023-03-26T12:23:08.111Z,10.30
2023-03-26T12:25:37.375Z,10.52
2023-03-26T12:28:13.069Z,10.69
2023-03-26T12:30:42.268Z,10.65
2023-03-26T12:33:18.161Z,10.93
2023-03-26T12:35:45.818Z,11.42
2023-03-26T12:38:24.167Z,11.53
2023-03-26T12:41:05.388Z,11.44
2023-03-26T12:44:46.610Z,11.60
2023-03-26T12:47:56.895Z,11.08
2023-03-26T12:49:19.102Z,10.95
2023-03-26T12:51:49.871Z,11.31
2023-03-26T12:54:25.399Z,11.39
2023-03-26T12:57:11.964Z,11.47
2023-03-26T12:59:50.341Z,11.38
2023-03-26T13:02:32.282Z,11.25
2023-03-26T13:05:17.626Z,11.33
2023-03-26T13:08:02.587Z,11.27
2023-03-26T13:10:37.328Z,11.40
2023-03-26T13:13:16.884Z,11.27
2023-03-26T13:15:46.971Z,10.98
2023-03-26T13:18:24.011Z,11.07
2023-03-26T13:20:57.850Z,11.15
2023-03-26T13:23:34.349Z,11.41
2023-03-26T13:26:10.001Z,11.33
2023-03-26T13:28:42.488Z,11.54
2023-03-26T13:31:17.650Z,11.41
2023-03-26T13:33:51.373Z,11.31
2023-03-26T13:36:24.971Z,11.27
2023-03-26T13:39:04.952Z,11.05
2023-03-26T13:41:41.770Z,10.96
2023-03-26T13:44:15.392Z,10.93
2023-03-26T13:46:46.228Z,10.93
2023-03-26T13:49:16.451Z,10.74
2023-03-26T13:51:50.274Z,10.66
2023-03-26T13:54:22.637Z,10.86
2023-03-26T13:56:53.290Z,10.47
2023-03-26T13:59:23.946Z,10.47
2023-03-26T14:01:55.504Z,10.40
2023-03-26T14:04:26.743Z,10.58
2023-03-26T14:06:59.517Z,10.34
2023-03-26T14:09:31.618Z,10.48
2023-03-26T14:12:21.118Z,10.50
2023-03-26T14:14:52.571Z,10.74
2023-03-26T14:17:23.410Z,11.02
2023-03-26T14:20:24.490Z,11.13
2023-03-26T14:23:03.035Z,11.35
2023-03-26T14:25:39.067Z,11.31
2023-03-26T14:28:17.156Z,11.29
2023-03-26T14:31:03.813Z,11.37
2023-03-26T14:33:54.114Z,11.21
2023-03-26T14:36:30.518Z,11.19
2023-03-26T14:39:25.629Z,11.39
2023-03-26T14:41:54.232Z,11.55
2023-03-26T14:44:56.295Z,11.70
2023-03-26T14:47:25.496Z,11.69
2023-03-26T14:50:35.720Z,11.77
2023-03-26T14:53:07.117Z,11.78
2023-03-26T14:55:56.546Z,11.84
2023-03-26T14:58:55.678Z,11.75
2023-03-26T15:01:26.599Z,11.72
2023-03-26T15:04:38.326Z,11.91
2023-03-26T15:07:23.323Z,11.81
2023-03-26T15:10:19.491Z,11.79
2023-03-26T15:13:03.394Z,12.02
2023-03-26T15:15:44.576Z,12.29
2023-03-26T15:19:09.435Z,12.43
2023-03-26T15:22:28.779Z,12.51
2023-03-26T15:25:23.074Z,12.26
2023-03-26T15:27:58.396Z,12.17
2023-03-26T15:31:06.988Z,12.28
2023-03-26T15:33:57.846Z,12.19
2023-03-26T15:36:47.717Z,11.93
2023-03-26T15:39:59.326Z,11.82
2023-03-26T15:42:32.504Z,11.62
2023-03-26T15:45:14.996Z,11.49
2023-03-26T15:48:11.027Z,11.53
2023-03-26T15:50:50.758Z,11.26
2023-03-26T15:53:36.411Z,10.94
2023-03-26T15:56:25.884Z,9.28
2023-03-26T15:58:59.316Z,8.83
2023-03-26T16:01:46.159Z,8.79
2023-03-26T16:04:30.534Z,8.72
2023-03-26T16:07:03.638Z,8.40
2023-03-26T16:09:42.750Z,8.17
2023-03-26T16:12:30.434Z,8.13
2023-03-26T16:15:32.017Z,8.12
2023-03-26T16:18:32.913Z,8.00
2023-03-26T16:21:30.669Z,7.83
2023-03-26T16:24:20.112Z,7.66
2023-03-26T16:26:59.203Z,7.75
2023-03-26T16:29:30.050Z,7.93
2023-03-26T16:32:01.530Z,8.28
2023-03-26T16:34:40.231Z,8.38
2023-03-26T16:37:38.392Z,8.65
2023-03-26T16:40:33.512Z,8.35
2023-03-26T16:43:27.815Z,8.20
2023-03-26T16:46:00.198Z,8.20
2023-03-26T16:48:33.925Z,8.44
2023-03-26T16:51:09.302Z,8.47
2023-03-26T16:53:42.614Z,8.31
2023-03-26T16:56:16.815Z,8.30
2023-03-26T16:58:54.874Z,8.36
2023-03-26T17:01:30.232Z,8.42
2023-03-26T17:04:01.537Z,8.27
2023-03-26T17:07:01.484Z,8.60
2023-03-26T17:09:38.887Z,8.28
2023-03-26T17:12:14.106Z,8.47
2023-03-26T17:14:54.810Z,8.35
2023-03-26T17:17:46.017Z,8.52
2023-03-26T17:20:22.463Z,8.51
2023-03-26T17:22:57.498Z,8.33
2023-03-26T17:25:32.376Z,8.35
2023-03-26T17:28:12.658Z,8.30
2023-03-26T17:30:54.571Z,8.58
2023-03-26T17:33:29.474Z,8.64
2023-03-26T17:36:16.027Z,8.48
2023-03-26T17:39:19.540Z,8.40
2023-03-26T17:42:13.387Z,8.29
2023-03-26T17:44:44.070Z,8.34
2023-03-26T17:47:20.885Z,8.41
2023-03-26T17:49:50.955Z,8.33
2023-03-26T17:52:22.203Z,8.24
2023-03-26T17:54:53.170Z,8.23
2023-03-26T17:57:22.910Z,8.21
2023-03-26T17:59:53.508Z,8.36
2023-03-26T18:02:23.832Z,8.58
2023-03-26T18:04:53.699Z,8.45
2023-03-26T18:07:46.436Z,8.53
2023-03-26T18:10:28.718Z,8.36
2023-03-26T18:13:17.028Z,8.36
2023-03-26T18:15:51.149Z,8.54
2023-03-26T18:18:21.425Z,8.45
2023-03-26T18:20:50.513Z,8.51
2023-03-26T18:23:24.233Z,8.60
2023-03-26T18:25:58.060Z,8.42
2023-03-26T18:28:35.795Z,8.23
2023-03-26T18:31:13.636Z,8.39
2023-03-26T18:33:46.097Z,8.16
2023-03-26T18:36:14.971Z,8.27
2023-03-26T18:38:43.203Z,8.32
2023-03-26T18:41:18.336Z,8.51
2023-03-26T18:43:45.866Z,8.30
2023-03-26T18:46:14.019Z,8.31
2023-03-26T18:49:00.047Z,8.32
2023-03-26T18:51:29.505Z,8.48
2023-03-26T18:54:00.307Z,8.54
2023-03-26T18:56:31.751Z,8.16
2023-03-26T18:59:00.847Z,7.99
2023-03-26T19:01:31.398Z,7.87
2023-03-26T19:04:02.085Z,7.92
2023-03-26T19:06:30.101Z,8.07
2023-03-26T19:08:58.693Z,8.02
2023-03-26T19:11:27.146Z,7.97
2023-03-26T19:14:07.694Z,7.83
2023-03-26T19:16:37.156Z,7.83
2023-03-26T19:19:06.702Z,7.96
2023-03-26T19:21:35.655Z,7.89
2023-03-26T19:24:03.658Z,7.79
2023-03-26T19:26:31.421Z,7.94
2023-03-26T19:29:00.651Z,8.10
2023-03-26T19:31:35.178Z,8.12
2023-03-26T19:34:04.855Z,7.99
2023-03-26T19:36:34.579Z,7.84
2023-03-26T19:39:12.731Z,7.73
2023-03-26T19:41:42.352Z,7.98
2023-03-26T19:44:19.447Z,8.07
2023-03-26T19:46:53.841Z,7.94
2023-03-26T19:49:30.819Z,8.09
2023-03-26T19:52:10.840Z,7.87
2023-03-26T19:54:59.950Z,8.03
2023-03-26T19:57:31.818Z,7.95
2023-03-26T19:59:59.681Z,8.07
2023-03-26T20:02:28.888Z,8.22
2023-03-26T20:04:56.553Z,7.96
2023-03-26T20:07:35.502Z,7.76
2023-03-26T20:10:05.448Z,7.89
2023-03-26T20:12:33.270Z,7.95
2023-03-26T20:15:01.572Z,7.88
2023-03-26T20:17:34.676Z,7.82
2023-03-26T20:20:02.289Z,7.87
2023-03-26T20:22:29.728Z,7.92
2023-03-26T20:24:57.282Z,7.87
2023-03-26T20:27:24.725Z,7.87
2023-03-26T20:29:52.178Z,8.12
2023-03-26T20:32:26.491Z,8.27
2023-03-26T20:34:57.596Z,8.15
2023-03-26T20:37:25.054Z,8.28
2023-03-26T20:39:52.584Z,8.36
2023-03-26T20:42:20.014Z,8.41
2023-03-26T20:44:50.610Z,8.39
2023-03-26T20:47:18.042Z,8.42
2023-03-26T20:49:45.872Z,8.45
2023-03-26T20:52:15.323Z,8.41
2023-03-26T20:54:42.778Z,8.38
2023-03-26T20:57:13.167Z,8.27
2023-03-26T20:59:41.848Z,8.26
2023-03-26T21:02:11.879Z,8.30
2023-03-26T21:04:39.726Z,8.19
2023-03-26T21:07:17.694Z,8.17
2023-03-26T21:09:48.650Z,8.17
2023-03-26T21:12:20.481Z,8.15
2023-03-26T21:14:48.876Z,8.09
2023-03-26T21:17:18.358Z,8.04
2023-03-26T21:19:47.098Z,7.96
2023-03-26T21:22:25.682Z,7.94
2023-03-26T21:25:02.456Z,7.89
2023-03-26T21:27:34.782Z,7.97
2023-03-26T21:30:02.762Z,7.93
2023-03-26T21:32:31.582Z,7.90
2023-03-26T21:34:59.752Z,7.80
2023-03-26T21:37:28.039Z,7.92
2023-03-26T21:39:57.575Z,7.78
2023-03-26T21:42:26.888Z,7.85
2023-03-26T21:44:54.942Z,7.86
2023-03-26T21:47:23.009Z,7.79
2023-03-26T21:49:52.285Z,7.73
2023-03-26T21:52:22.501Z,7.71
2023-03-26T21:54:50.860Z,7.72
2023-03-26T21:57:34.130Z,7.73
2023-03-26T22:00:14.978Z,7.71
2023-03-26T22:02:51.787Z,7.69
2023-03-26T22:05:20.853Z,7.66
2023-03-26T22:07:53.861Z,7.53
2023-03-26T22:10:21.810Z,7.68
2023-03-26T22:12:51.043Z,7.65
2023-03-26T22:15:19.162Z,7.60
2023-03-26T22:17:53.605Z,7.62
2023-03-26T22:20:24.398Z,7.58
2023-03-26T22:22:53.293Z,7.49
2023-03-26T22:25:21.640Z,7.44
2023-03-26T22:27:51.712Z,7.32
2023-03-26T22:30:20.540Z,7.33
2023-03-26T22:32:48.463Z,7.31
2023-03-26T22:35:16.490Z,7.30
2023-03-26T22:37:43.993Z,7.25
2023-03-26T22:40:13.368Z,7.19
2023-03-26T22:42:40.971Z,7.18
2023-03-26T22:45:11.186Z,7.15
2023-03-26T22:47:38.796Z,7.11
2023-03-26T22:50:07.948Z,7.04
2023-03-26T22:52:36.267Z,7.07
2023-03-26T22:55:04.727Z,7.02
2023-03-26T22:57:32.215Z,7.03
2023-03-26T23:00:08.121Z,6.99
2023-03-26T23:02:37.000Z,6.96
2023-03-26T23:05:04.637Z,6.88
2023-03-26T23:07:32.452Z,6.90
2023-03-26T23:09:59.911Z,6.84
2023-03-26T23:12:27.462Z,6.81
2023-03-26T23:14:55.265Z,6.74
2023-03-26T23:17:23.830Z,6.70
2023-03-26T23:19:53.029Z,6.72
2023-03-26T23:22:21.394Z,6.65
2023-03-26T23:24:48.952Z,6.63
2023-03-26T23:27:16.406Z,6.61
2023-03-26T23:29:50.129Z,6.56
2023-03-26T23:32:24.072Z,6.49
2023-03-26T23:34:55.746Z,6.49
2023-03-26T23:37:23.747Z,6.44
2023-03-26T23:39:51.470Z,6.38
2023-03-26T23:42:28.838Z,6.32
2023-03-26T23:44:57.558Z,6.37
2023-03-26T23:47:25.442Z,6.28
2023-03-26T23:49:54.284Z,6.30
2023-03-26T23:52:21.739Z,6.25
2023-03-26T23:54:49.297Z,6.18
2023-03-26T23:57:18.393Z,6.17
2023-03-26T23:59:45.942Z,6.12
